sensor_id;sensor_type;location;lat;lon;timestamp;temperature;humidity
40758;DHT22;26462;47.384;19.218;2024-03-02T00:01:55;9.90;99.90
40758;DHT22;26462;47.384;19.218;2024-03-02T00:04:24;9.90;99.90
40758;DHT22;26462;47.384;19.218;2024-03-02T00:06:52;9.90;99.90
40758;DHT22;26462;47.384;19.218;2024-03-02T00:09:22;9.90;99.90
40758;DHT22;26462;47.384;19.218;2024-03-02T00:11:51;9.90;99.90
40758;DHT22;26462;47.384;19.218;2024-03-02T00:14:20;9.90;99.90
40758;DHT22;26462;47.384;19.218;2024-03-02T00:16:51;9.90;99.90
40758;DHT22;26462;47.384;19.218;2024-03-02T00:19:20;9.80;99.90
40758;DHT22;26462;47.384;19.218;2024-03-02T00:21:48;9.90;99.90
40758;DHT22;26462;47.384;19.218;2024-03-02T00:24:21;9.90;99.90
40758;DHT22;26462;47.384;19.218;2024-03-02T00:26:53;9.80;99.90
40758;DHT22;26462;47.384;19.218;2024-03-02T00:29:23;9.80;99.90
40758;DHT22;26462;47.384;19.218;2024-03-02T00:31:51;9.80;99.90
40758;DHT22;26462;47.384;19.218;2024-03-02T00:34:20;9.70;99.90
40758;DHT22;26462;47.384;19.218;2024-03-02T00:36:49;9.70;99.90
40758;DHT22;26462;47.384;19.218;2024-03-02T00:39:18;9.70;99.90
40758;DHT22;26462;47.384;19.218;2024-03-02T00:41:47;9.70;99.90
40758;DHT22;26462;47.384;19.218;2024-03-02T00:44:16;9.70;99.90
40758;DHT22;26462;47.384;19.218;2024-03-02T00:46:48;9.70;99.90
40758;DHT22;26462;47.384;19.218;2024-03-02T00:49:20;9.70;99.90
40758;DHT22;26462;47.384;19.218;2024-03-02T00:51:50;9.70;99.90
40758;DHT22;26462;47.384;19.218;2024-03-02T00:54:20;9.60;99.90
40758;DHT22;26462;47.384;19.218;2024-03-02T00:56:51;9.60;99.90
40758;DHT22;26462;47.384;19.218;2024-03-02T00:59:22;9.60;99.90
40758;DHT22;26462;47.384;19.218;2024-03-02T01:01:52;9.60;99.90
40758;DHT22;26462;47.384;19.218;2024-03-02T01:04:21;9.60;99.90
40758;DHT22;26462;47.384;19.218;2024-03-02T01:06:49;9.60;99.90
40758;DHT22;26462;47.384;19.218;2024-03-02T01:09:18;9.60;99.90
40758;DHT22;26462;47.384;19.218;2024-03-02T01:11:46;9.60;99.90
40758;DHT22;26462;47.384;19.218;2024-03-02T01:14:15;9.60;99.90
40758;DHT22;26462;47.384;19.218;2024-03-02T01:16:44;9.60;99.90
40758;DHT22;26462;47.384;19.218;2024-03-02T01:19:13;9.60;99.90
40758;DHT22;26462;47.384;19.218;2024-03-02T01:21:42;9.60;99.90
40758;DHT22;26462;47.384;19.218;2024-03-02T01:24:11;9.60;99.90
40758;DHT22;26462;47.384;19.218;2024-03-02T01:26:40;9.60;99.90
40758;DHT22;26462;47.384;19.218;2024-03-02T01:29:08;9.60;99.90
40758;DHT22;26462;47.384;19.218;2024-03-02T01:31:38;9.60;99.90
40758;DHT22;26462;47.384;19.218;2024-03-02T01:34:09;9.60;99.90
40758;DHT22;26462;47.384;19.218;2024-03-02T01:36:39;9.60;99.90
40758;DHT22;26462;47.384;19.218;2024-03-02T01:39:07;9.60;99.90
40758;DHT22;26462;47.384;19.218;2024-03-02T01:41:37;9.60;99.90
40758;DHT22;26462;47.384;19.218;2024-03-02T01:44:05;9.60;99.90
40758;DHT22;26462;47.384;19.218;2024-03-02T01:46:34;9.60;99.90
40758;DHT22;26462;47.384;19.218;2024-03-02T01:49:03;9.60;99.90
40758;DHT22;26462;47.384;19.218;2024-03-02T01:51:31;9.50;99.90
40758;DHT22;26462;47.384;19.218;2024-03-02T01:54:01;9.50;99.90
40758;DHT22;26462;47.384;19.218;2024-03-02T01:56:30;9.50;99.90
40758;DHT22;26462;47.384;19.218;2024-03-02T01:58:58;9.50;99.90
40758;DHT22;26462;47.384;19.218;2024-03-02T02:01:27;9.50;99.90
40758;DHT22;26462;47.384;19.218;2024-03-02T02:03:56;9.50;99.90
40758;DHT22;26462;47.384;19.218;2024-03-02T02:06:24;9.50;99.90
40758;DHT22;26462;47.384;19.218;2024-03-02T02:08:53;9.50;99.90
40758;DHT22;26462;47.384;19.218;2024-03-02T02:11:23;9.50;99.90
40758;DHT22;26462;47.384;19.218;2024-03-02T02:13:52;9.50;99.90
40758;DHT22;26462;47.384;19.218;2024-03-02T02:16:22;9.50;99.90
40758;DHT22;26462;47.384;19.218;2024-03-02T02:18:51;9.50;99.90
40758;DHT22;26462;47.384;19.218;2024-03-02T02:21:24;9.50;99.90
40758;DHT22;26462;47.384;19.218;2024-03-02T02:23:53;9.50;99.90
40758;DHT22;26462;47.384;19.218;2024-03-02T02:26:21;9.50;99.90
40758;DHT22;26462;47.384;19.218;2024-03-02T02:28:49;9.50;99.90
40758;DHT22;26462;47.384;19.218;2024-03-02T02:31:18;9.50;99.90
40758;DHT22;26462;47.384;19.218;2024-03-02T02:33:46;9.50;99.90
40758;DHT22;26462;47.384;19.218;2024-03-02T02:36:15;9.50;99.90
40758;DHT22;26462;47.384;19.218;2024-03-02T02:38:48;9.50;99.90
40758;DHT22;26462;47.384;19.218;2024-03-02T02:41:17;9.50;99.90
40758;DHT22;26462;47.384;19.218;2024-03-02T02:43:45;9.50;99.90
40758;DHT22;26462;47.384;19.218;2024-03-02T02:46:13;9.50;99.90
40758;DHT22;26462;47.384;19.218;2024-03-02T02:48:42;9.50;99.90
40758;DHT22;26462;47.384;19.218;2024-03-02T02:51:10;9.50;99.90
40758;DHT22;26462;47.384;19.218;2024-03-02T02:53:39;9.50;99.90
40758;DHT22;26462;47.384;19.218;2024-03-02T02:56:10;9.50;99.90
40758;DHT22;26462;47.384;19.218;2024-03-02T02:58:40;9.50;99.90
40758;DHT22;26462;47.384;19.218;2024-03-02T03:01:08;9.50;99.90
40758;DHT22;26462;47.384;19.218;2024-03-02T03:03:37;9.50;99.90
40758;DHT22;26462;47.384;19.218;2024-03-02T03:06:05;9.50;99.90
40758;DHT22;26462;47.384;19.218;2024-03-02T03:08:33;9.50;99.90
40758;DHT22;26462;47.384;19.218;2024-03-02T03:11:03;9.50;99.90
40758;DHT22;26462;47.384;19.218;2024-03-02T03:13:34;9.50;99.90
40758;DHT22;26462;47.384;19.218;2024-03-02T03:16:03;9.50;99.90
40758;DHT22;26462;47.384;19.218;2024-03-02T03:18:32;9.50;99.90
40758;DHT22;26462;47.384;19.218;2024-03-02T03:21:01;9.50;99.90
40758;DHT22;26462;47.384;19.218;2024-03-02T03:23:29;9.50;99.90
40758;DHT22;26462;47.384;19.218;2024-03-02T03:25:58;9.50;99.90
40758;DHT22;26462;47.384;19.218;2024-03-02T03:28:26;9.50;99.90
40758;DHT22;26462;47.384;19.218;2024-03-02T03:30:56;9.50;99.90
40758;DHT22;26462;47.384;19.218;2024-03-02T03:33:24;9.50;99.90
40758;DHT22;26462;47.384;19.218;2024-03-02T03:35:53;9.50;99.90
40758;DHT22;26462;47.384;19.218;2024-03-02T03:38:21;9.50;99.90
40758;DHT22;26462;47.384;19.218;2024-03-02T03:40:50;9.50;99.90
40758;DHT22;26462;47.384;19.218;2024-03-02T03:43:18;9.50;99.90
40758;DHT22;26462;47.384;19.218;2024-03-02T03:45:46;9.50;99.90
40758;DHT22;26462;47.384;19.218;2024-03-02T03:48:16;9.40;99.90
40758;DHT22;26462;47.384;19.218;2024-03-02T03:50:45;9.40;99.90
40758;DHT22;26462;47.384;19.218;2024-03-02T03:53:14;9.30;99.90
40758;DHT22;26462;47.384;19.218;2024-03-02T03:55:42;9.30;99.90
40758;DHT22;26462;47.384;19.218;2024-03-02T03:58:14;9.30;99.90
40758;DHT22;26462;47.384;19.218;2024-03-02T04:00:46;9.20;99.90
40758;DHT22;26462;47.384;19.218;2024-03-02T04:03:16;9.20;99.90
40758;DHT22;26462;47.384;19.218;2024-03-02T04:05:44;9.20;99.90
40758;DHT22;26462;47.384;19.218;2024-03-02T04:08:13;9.20;99.90
40758;DHT22;26462;47.384;19.218;2024-03-02T04:10:41;9.20;99.90
40758;DHT22;26462;47.384;19.218;2024-03-02T04:13:10;9.20;99.90
40758;DHT22;26462;47.384;19.218;2024-03-02T04:15:38;9.20;99.90
40758;DHT22;26462;47.384;19.218;2024-03-02T04:18:07;9.10;99.90
40758;DHT22;26462;47.384;19.218;2024-03-02T04:20:38;9.20;99.90
40758;DHT22;26462;47.384;19.218;2024-03-02T04:23:06;9.20;99.90
40758;DHT22;26462;47.384;19.218;2024-03-02T04:25:35;9.20;99.90
40758;DHT22;26462;47.384;19.218;2024-03-02T04:28:03;9.10;99.90
40758;DHT22;26462;47.384;19.218;2024-03-02T04:30:32;9.10;99.90
40758;DHT22;26462;47.384;19.218;2024-03-02T04:33:00;9.10;99.90
40758;DHT22;26462;47.384;19.218;2024-03-02T04:35:29;9.10;99.90
40758;DHT22;26462;47.384;19.218;2024-03-02T04:37:59;9.10;99.90
40758;DHT22;26462;47.384;19.218;2024-03-02T04:40:28;9.20;99.90
40758;DHT22;26462;47.384;19.218;2024-03-02T04:42:56;9.20;99.90
40758;DHT22;26462;47.384;19.218;2024-03-02T04:45:26;9.20;99.90
40758;DHT22;26462;47.384;19.218;2024-03-02T04:47:54;9.20;99.90
40758;DHT22;26462;47.384;19.218;2024-03-02T04:50:23;9.20;99.90
40758;DHT22;26462;47.384;19.218;2024-03-02T04:52:51;9.20;99.90
40758;DHT22;26462;47.384;19.218;2024-03-02T04:55:21;9.20;99.90
40758;DHT22;26462;47.384;19.218;2024-03-02T04:58:12;9.20;99.90
40758;DHT22;26462;47.384;19.218;2024-03-02T05:00:40;9.20;99.90
40758;DHT22;26462;47.384;19.218;2024-03-02T05:03:10;9.20;99.90
40758;DHT22;26462;47.384;19.218;2024-03-02T05:05:38;9.30;99.90
40758;DHT22;26462;47.384;19.218;2024-03-02T05:08:07;9.20;99.90
40758;DHT22;26462;47.384;19.218;2024-03-02T05:10:36;9.20;99.90
40758;DHT22;26462;47.384;19.218;2024-03-02T05:13:05;9.20;99.90
40758;DHT22;26462;47.384;19.218;2024-03-02T05:15:33;9.20;99.90
40758;DHT22;26462;47.384;19.218;2024-03-02T05:18:01;9.20;99.90
40758;DHT22;26462;47.384;19.218;2024-03-02T05:20:32;9.20;99.90
40758;DHT22;26462;47.384;19.218;2024-03-02T05:23:01;9.10;99.90
40758;DHT22;26462;47.384;19.218;2024-03-02T05:25:30;9.20;99.90
40758;DHT22;26462;47.384;19.218;2024-03-02T05:28:00;9.20;99.90
40758;DHT22;26462;47.384;19.218;2024-03-02T05:30:29;9.10;99.90
40758;DHT22;26462;47.384;19.218;2024-03-02T05:32:57;9.20;99.90
40758;DHT22;26462;47.384;19.218;2024-03-02T05:35:25;9.20;99.90
40758;DHT22;26462;47.384;19.218;2024-03-02T05:37:54;9.10;99.90
40758;DHT22;26462;47.384;19.218;2024-03-02T05:40:22;9.10;99.90
40758;DHT22;26462;47.384;19.218;2024-03-02T05:42:50;9.10;99.90
40758;DHT22;26462;47.384;19.218;2024-03-02T05:45:20;9.10;99.90
40758;DHT22;26462;47.384;19.218;2024-03-02T05:47:49;9.10;99.90
40758;DHT22;26462;47.384;19.218;2024-03-02T05:50:17;9.10;99.90
40758;DHT22;26462;47.384;19.218;2024-03-02T05:52:47;9.00;99.90
40758;DHT22;26462;47.384;19.218;2024-03-02T05:55:15;9.00;99.90
40758;DHT22;26462;47.384;19.218;2024-03-02T05:57:43;9.00;99.90
40758;DHT22;26462;47.384;19.218;2024-03-02T06:00:27;9.00;99.90
40758;DHT22;26462;47.384;19.218;2024-03-02T06:02:58;9.00;99.90
40758;DHT22;26462;47.384;19.218;2024-03-02T06:05:27;9.00;99.90
40758;DHT22;26462;47.384;19.218;2024-03-02T06:07:56;9.00;99.90
40758;DHT22;26462;47.384;19.218;2024-03-02T06:10:25;9.00;99.90
40758;DHT22;26462;47.384;19.218;2024-03-02T06:12:53;9.00;99.90
40758;DHT22;26462;47.384;19.218;2024-03-02T06:15:22;9.00;99.90
40758;DHT22;26462;47.384;19.218;2024-03-02T06:17:52;9.00;99.90
40758;DHT22;26462;47.384;19.218;2024-03-02T06:20:20;9.10;99.90
40758;DHT22;26462;47.384;19.218;2024-03-02T06:22:49;9.00;99.90
40758;DHT22;26462;47.384;19.218;2024-03-02T06:25:17;9.00;99.90
40758;DHT22;26462;47.384;19.218;2024-03-02T06:27:46;9.00;99.90
40758;DHT22;26462;47.384;19.218;2024-03-02T06:30:14;9.00;99.90
40758;DHT22;26462;47.384;19.218;2024-03-02T06:32:43;9.10;99.90
40758;DHT22;26462;47.384;19.218;2024-03-02T06:35:13;9.00;99.90
40758;DHT22;26462;47.384;19.218;2024-03-02T06:37:41;9.10;99.90
40758;DHT22;26462;47.384;19.218;2024-03-02T06:40:10;9.10;99.90
40758;DHT22;26462;47.384;19.218;2024-03-02T06:42:38;9.20;99.90
40758;DHT22;26462;47.384;19.218;2024-03-02T06:45:07;9.20;99.90
40758;DHT22;26462;47.384;19.218;2024-03-02T06:47:36;9.20;99.90
40758;DHT22;26462;47.384;19.218;2024-03-02T06:50:05;9.20;99.90
40758;DHT22;26462;47.384;19.218;2024-03-02T06:52:35;9.20;99.90
40758;DHT22;26462;47.384;19.218;2024-03-02T06:55:05;9.20;99.90
40758;DHT22;26462;47.384;19.218;2024-03-02T06:57:33;9.20;99.90
40758;DHT22;26462;47.384;19.218;2024-03-02T07:00:02;9.20;99.90
40758;DHT22;26462;47.384;19.218;2024-03-02T07:02:32;9.20;99.90
40758;DHT22;26462;47.384;19.218;2024-03-02T07:05:00;9.20;99.90
40758;DHT22;26462;47.384;19.218;2024-03-02T07:07:29;9.20;99.90
40758;DHT22;26462;47.384;19.218;2024-03-02T07:10:00;9.20;99.90
40758;DHT22;26462;47.384;19.218;2024-03-02T07:12:29;9.20;99.90
40758;DHT22;26462;47.384;19.218;2024-03-02T07:14:58;9.20;99.90
40758;DHT22;26462;47.384;19.218;2024-03-02T07:17:45;9.10;99.90
40758;DHT22;26462;47.384;19.218;2024-03-02T07:20:14;9.20;99.90
40758;DHT22;26462;47.384;19.218;2024-03-02T07:22:42;9.20;99.90
40758;DHT22;26462;47.384;19.218;2024-03-02T07:25:12;9.20;99.90
40758;DHT22;26462;47.384;19.218;2024-03-02T07:27:44;9.10;99.90
40758;DHT22;26462;47.384;19.218;2024-03-02T07:30:14;9.20;99.90
40758;DHT22;26462;47.384;19.218;2024-03-02T07:32:44;9.20;99.90
40758;DHT22;26462;47.384;19.218;2024-03-02T07:35:13;9.20;99.90
40758;DHT22;26462;47.384;19.218;2024-03-02T07:37:42;9.20;99.90
40758;DHT22;26462;47.384;19.218;2024-03-02T07:40:12;9.20;99.90
40758;DHT22;26462;47.384;19.218;2024-03-02T07:42:41;9.20;99.90
40758;DHT22;26462;47.384;19.218;2024-03-02T07:45:10;9.20;99.90
40758;DHT22;26462;47.384;19.218;2024-03-02T07:47:38;9.20;99.90
40758;DHT22;26462;47.384;19.218;2024-03-02T07:50:07;9.20;99.90
40758;DHT22;26462;47.384;19.218;2024-03-02T07:52:36;9.30;99.90
40758;DHT22;26462;47.384;19.218;2024-03-02T07:55:05;9.30;99.90
40758;DHT22;26462;47.384;19.218;2024-03-02T07:57:35;9.30;99.90
40758;DHT22;26462;47.384;19.218;2024-03-02T08:00:04;9.30;99.90
40758;DHT22;26462;47.384;19.218;2024-03-02T08:02:40;9.30;99.90
40758;DHT22;26462;47.384;19.218;2024-03-02T08:05:09;9.30;99.90
40758;DHT22;26462;47.384;19.218;2024-03-02T08:07:37;9.30;99.90
40758;DHT22;26462;47.384;19.218;2024-03-02T08:10:07;9.30;99.90
40758;DHT22;26462;47.384;19.218;2024-03-02T08:12:37;9.30;99.90
40758;DHT22;26462;47.384;19.218;2024-03-02T08:15:07;9.30;99.90
40758;DHT22;26462;47.384;19.218;2024-03-02T08:17:35;9.40;99.90
40758;DHT22;26462;47.384;19.218;2024-03-02T08:20:06;9.40;99.90
40758;DHT22;26462;47.384;19.218;2024-03-02T08:22:35;9.40;99.90
40758;DHT22;26462;47.384;19.218;2024-03-02T08:25:04;9.40;99.90
40758;DHT22;26462;47.384;19.218;2024-03-02T08:27:32;9.40;99.90
40758;DHT22;26462;47.384;19.218;2024-03-02T08:30:03;9.40;99.90
40758;DHT22;26462;47.384;19.218;2024-03-02T08:32:34;9.40;99.90
40758;DHT22;26462;47.384;19.218;2024-03-02T08:35:03;9.40;99.90
40758;DHT22;26462;47.384;19.218;2024-03-02T08:37:31;9.40;99.90
40758;DHT22;26462;47.384;19.218;2024-03-02T08:40:00;9.40;99.90
40758;DHT22;26462;47.384;19.218;2024-03-02T08:42:31;9.40;99.90
40758;DHT22;26462;47.384;19.218;2024-03-02T08:44:59;9.40;99.90
40758;DHT22;26462;47.384;19.218;2024-03-02T08:47:30;9.40;99.90
40758;DHT22;26462;47.384;19.218;2024-03-02T08:49:59;9.50;99.90
40758;DHT22;26462;47.384;19.218;2024-03-02T08:52:28;9.40;99.90
40758;DHT22;26462;47.384;19.218;2024-03-02T08:54:56;9.50;99.90
40758;DHT22;26462;47.384;19.218;2024-03-02T08:57:25;9.50;99.90
40758;DHT22;26462;47.384;19.218;2024-03-02T08:59:54;9.50;99.90
40758;DHT22;26462;47.384;19.218;2024-03-02T09:02:22;9.60;99.90
40758;DHT22;26462;47.384;19.218;2024-03-02T09:04:52;9.50;99.90
40758;DHT22;26462;47.384;19.218;2024-03-02T09:07:21;9.50;99.90
40758;DHT22;26462;47.384;19.218;2024-03-02T09:09:49;9.60;99.90
40758;DHT22;26462;47.384;19.218;2024-03-02T09:12:18;9.60;99.90
40758;DHT22;26462;47.384;19.218;2024-03-02T09:14:46;9.60;99.90
40758;DHT22;26462;47.384;19.218;2024-03-02T09:17:15;9.50;99.90
40758;DHT22;26462;47.384;19.218;2024-03-02T09:19:43;9.60;99.90
40758;DHT22;26462;47.384;19.218;2024-03-02T09:22:13;9.60;99.90
40758;DHT22;26462;47.384;19.218;2024-03-02T09:24:41;9.60;99.90
40758;DHT22;26462;47.384;19.218;2024-03-02T09:27:10;9.60;99.90
40758;DHT22;26462;47.384;19.218;2024-03-02T09:29:38;9.70;99.90
40758;DHT22;26462;47.384;19.218;2024-03-02T09:32:08;9.60;99.90
40758;DHT22;26462;47.384;19.218;2024-03-02T09:34:37;9.60;99.90
40758;DHT22;26462;47.384;19.218;2024-03-02T09:37:05;9.70;99.90
40758;DHT22;26462;47.384;19.218;2024-03-02T09:39:35;9.70;99.90
40758;DHT22;26462;47.384;19.218;2024-03-02T09:42:04;9.70;99.90
40758;DHT22;26462;47.384;19.218;2024-03-02T09:44:34;9.70;99.90
40758;DHT22;26462;47.384;19.218;2024-03-02T09:47:03;9.70;99.90
40758;DHT22;26462;47.384;19.218;2024-03-02T09:49:32;9.70;99.90
40758;DHT22;26462;47.384;19.218;2024-03-02T09:52:03;9.70;99.90
40758;DHT22;26462;47.384;19.218;2024-03-02T09:54:36;9.70;99.90
40758;DHT22;26462;47.384;19.218;2024-03-02T09:57:05;9.70;99.90
40758;DHT22;26462;47.384;19.218;2024-03-02T09:59:33;9.80;99.90
40758;DHT22;26462;47.384;19.218;2024-03-02T10:02:03;9.80;99.90
40758;DHT22;26462;47.384;19.218;2024-03-02T10:04:34;9.80;99.90
40758;DHT22;26462;47.384;19.218;2024-03-02T10:07:14;9.70;99.90
40758;DHT22;26462;47.384;19.218;2024-03-02T10:09:45;9.80;99.90
40758;DHT22;26462;47.384;19.218;2024-03-02T10:12:15;9.80;99.90
40758;DHT22;26462;47.384;19.218;2024-03-02T10:14:45;9.80;99.90
40758;DHT22;26462;47.384;19.218;2024-03-02T10:17:17;9.80;99.90
40758;DHT22;26462;47.384;19.218;2024-03-02T10:19:46;9.90;99.90
40758;DHT22;26462;47.384;19.218;2024-03-02T10:22:14;9.90;99.90
40758;DHT22;26462;47.384;19.218;2024-03-02T10:24:45;9.90;99.90
40758;DHT22;26462;47.384;19.218;2024-03-02T10:27:16;9.90;99.90
40758;DHT22;26462;47.384;19.218;2024-03-02T10:29:46;9.90;99.90
40758;DHT22;26462;47.384;19.218;2024-03-02T10:32:15;9.90;99.90
40758;DHT22;26462;47.384;19.218;2024-03-02T10:34:45;9.90;99.90
40758;DHT22;26462;47.384;19.218;2024-03-02T10:37:15;9.90;99.90
40758;DHT22;26462;47.384;19.218;2024-03-02T10:39:46;9.90;99.90
40758;DHT22;26462;47.384;19.218;2024-03-02T10:42:15;9.80;99.90
40758;DHT22;26462;47.384;19.218;2024-03-02T10:44:45;9.90;99.90
40758;DHT22;26462;47.384;19.218;2024-03-02T10:47:14;9.90;99.90
40758;DHT22;26462;47.384;19.218;2024-03-02T10:49:44;9.90;99.90
40758;DHT22;26462;47.384;19.218;2024-03-02T10:52:14;9.90;99.90
40758;DHT22;26462;47.384;19.218;2024-03-02T10:54:45;9.90;99.90
40758;DHT22;26462;47.384;19.218;2024-03-02T10:57:17;9.90;99.90
40758;DHT22;26462;47.384;19.218;2024-03-02T10:59:52;9.90;99.90
40758;DHT22;26462;47.384;19.218;2024-03-02T11:02:24;10.00;99.90
40758;DHT22;26462;47.384;19.218;2024-03-02T11:04:56;10.10;99.90
40758;DHT22;26462;47.384;19.218;2024-03-02T11:07:28;10.20;99.90
40758;DHT22;26462;47.384;19.218;2024-03-02T11:10:01;10.30;99.90
40758;DHT22;26462;47.384;19.218;2024-03-02T11:12:39;10.30;99.90
40758;DHT22;26462;47.384;19.218;2024-03-02T11:15:11;10.20;99.90
40758;DHT22;26462;47.384;19.218;2024-03-02T11:17:44;10.20;99.90
40758;DHT22;26462;47.384;19.218;2024-03-02T11:20:13;10.30;99.90
40758;DHT22;26462;47.384;19.218;2024-03-02T11:22:43;10.30;99.90
40758;DHT22;26462;47.384;19.218;2024-03-02T11:25:25;10.30;99.90
40758;DHT22;26462;47.384;19.218;2024-03-02T11:28:01;10.30;99.90
40758;DHT22;26462;47.384;19.218;2024-03-02T11:30:50;10.30;99.90
40758;DHT22;26462;47.384;19.218;2024-03-02T11:33:26;10.40;99.90
40758;DHT22;26462;47.384;19.218;2024-03-02T11:35:57;10.40;99.90
40758;DHT22;26462;47.384;19.218;2024-03-02T11:38:30;10.40;99.90
40758;DHT22;26462;47.384;19.218;2024-03-02T11:41:01;10.40;99.90
40758;DHT22;26462;47.384;19.218;2024-03-02T11:43:31;10.30;99.90
40758;DHT22;26462;47.384;19.218;2024-03-02T11:46:01;10.50;99.90
40758;DHT22;26462;47.384;19.218;2024-03-02T11:48:35;10.50;99.90
40758;DHT22;26462;47.384;19.218;2024-03-02T11:51:04;10.50;99.90
40758;DHT22;26462;47.384;19.218;2024-03-02T11:53:33;10.40;99.90
40758;DHT22;26462;47.384;19.218;2024-03-02T11:56:06;10.30;99.90
40758;DHT22;26462;47.384;19.218;2024-03-02T11:58:39;10.30;99.90
40758;DHT22;26462;47.384;19.218;2024-03-02T12:01:10;10.30;99.90
40758;DHT22;26462;47.384;19.218;2024-03-02T12:03:39;10.20;99.90
40758;DHT22;26462;47.384;19.218;2024-03-02T12:06:08;10.20;99.90
40758;DHT22;26462;47.384;19.218;2024-03-02T12:08:36;10.30;99.90
40758;DHT22;26462;47.384;19.218;2024-03-02T12:11:06;10.20;99.90
40758;DHT22;26462;47.384;19.218;2024-03-02T12:13:35;10.30;99.90
40758;DHT22;26462;47.384;19.218;2024-03-02T12:16:04;10.30;99.90
40758;DHT22;26462;47.384;19.218;2024-03-02T12:18:33;10.20;99.90
40758;DHT22;26462;47.384;19.218;2024-03-02T12:21:03;10.20;99.90
40758;DHT22;26462;47.384;19.218;2024-03-02T12:23:34;10.20;99.90
40758;DHT22;26462;47.384;19.218;2024-03-02T12:26:03;10.10;99.90
40758;DHT22;26462;47.384;19.218;2024-03-02T12:28:34;10.10;99.90
40758;DHT22;26462;47.384;19.218;2024-03-02T12:31:03;10.10;99.90
40758;DHT22;26462;47.384;19.218;2024-03-02T12:33:32;10.00;99.90
40758;DHT22;26462;47.384;19.218;2024-03-02T12:36:00;9.90;99.90
40758;DHT22;26462;47.384;19.218;2024-03-02T12:38:29;9.90;99.90
40758;DHT22;26462;47.384;19.218;2024-03-02T12:40:57;9.90;99.90
40758;DHT22;26462;47.384;19.218;2024-03-02T12:43:30;9.90;99.90
40758;DHT22;26462;47.384;19.218;2024-03-02T12:46:00;9.90;99.90
40758;DHT22;26462;47.384;19.218;2024-03-02T12:48:29;9.80;99.90
40758;DHT22;26462;47.384;19.218;2024-03-02T12:50:58;9.70;99.90
40758;DHT22;26462;47.384;19.218;2024-03-02T12:53:26;9.70;99.90
40758;DHT22;26462;47.384;19.218;2024-03-02T12:55:55;9.70;99.90
40758;DHT22;26462;47.384;19.218;2024-03-02T12:58:24;9.70;99.90
40758;DHT22;26462;47.384;19.218;2024-03-02T13:01:07;9.70;99.90
40758;DHT22;26462;47.384;19.218;2024-03-02T13:03:36;9.70;99.90
40758;DHT22;26462;47.384;19.218;2024-03-02T13:06:05;9.70;99.90
40758;DHT22;26462;47.384;19.218;2024-03-02T13:08:34;9.70;99.90
40758;DHT22;26462;47.384;19.218;2024-03-02T13:11:04;9.70;99.90
40758;DHT22;26462;47.384;19.218;2024-03-02T13:13:34;9.70;99.90
40758;DHT22;26462;47.384;19.218;2024-03-02T13:16:03;9.60;99.90
40758;DHT22;26462;47.384;19.218;2024-03-02T13:18:36;9.70;99.90
40758;DHT22;26462;47.384;19.218;2024-03-02T13:21:06;9.60;99.90
40758;DHT22;26462;47.384;19.218;2024-03-02T13:23:34;9.60;99.90
40758;DHT22;26462;47.384;19.218;2024-03-02T13:26:03;9.70;99.90
40758;DHT22;26462;47.384;19.218;2024-03-02T13:28:31;9.80;99.90
40758;DHT22;26462;47.384;19.218;2024-03-02T13:31:01;9.80;99.90
40758;DHT22;26462;47.384;19.218;2024-03-02T13:33:30;9.80;99.90
40758;DHT22;26462;47.384;19.218;2024-03-02T13:36:01;9.80;99.90
40758;DHT22;26462;47.384;19.218;2024-03-02T13:38:30;9.80;99.90
40758;DHT22;26462;47.384;19.218;2024-03-02T13:40:58;9.90;99.90
40758;DHT22;26462;47.384;19.218;2024-03-02T13:43:28;9.80;99.90
40758;DHT22;26462;47.384;19.218;2024-03-02T13:45:58;9.90;99.90
40758;DHT22;26462;47.384;19.218;2024-03-02T13:48:27;9.90;99.90
40758;DHT22;26462;47.384;19.218;2024-03-02T13:50:56;9.90;99.90
40758;DHT22;26462;47.384;19.218;2024-03-02T13:53:26;9.90;99.90
40758;DHT22;26462;47.384;19.218;2024-03-02T13:55:55;9.90;99.90
40758;DHT22;26462;47.384;19.218;2024-03-02T13:58:23;9.90;99.90
40758;DHT22;26462;47.384;19.218;2024-03-02T14:00:51;9.90;99.90
40758;DHT22;26462;47.384;19.218;2024-03-02T14:03:20;9.90;99.90
40758;DHT22;26462;47.384;19.218;2024-03-02T14:05:50;9.90;99.90
40758;DHT22;26462;47.384;19.218;2024-03-02T14:08:20;10.00;99.90
40758;DHT22;26462;47.384;19.218;2024-03-02T14:10:49;9.90;99.90
40758;DHT22;26462;47.384;19.218;2024-03-02T14:13:18;9.90;99.90
40758;DHT22;26462;47.384;19.218;2024-03-02T14:15:47;9.90;99.90
40758;DHT22;26462;47.384;19.218;2024-03-02T14:18:15;9.80;99.90
40758;DHT22;26462;47.384;19.218;2024-03-02T14:20:44;9.80;99.90
40758;DHT22;26462;47.384;19.218;2024-03-02T14:23:15;9.80;99.90
40758;DHT22;26462;47.384;19.218;2024-03-02T14:25:44;9.90;99.90
40758;DHT22;26462;47.384;19.218;2024-03-02T14:28:15;9.90;99.90
40758;DHT22;26462;47.384;19.218;2024-03-02T14:31:05;9.90;99.90
40758;DHT22;26462;47.384;19.218;2024-03-02T14:33:33;9.80;99.90
40758;DHT22;26462;47.384;19.218;2024-03-02T14:36:03;9.80;99.90
40758;DHT22;26462;47.384;19.218;2024-03-02T14:38:32;9.80;99.90
40758;DHT22;26462;47.384;19.218;2024-03-02T14:41:00;9.90;99.90
40758;DHT22;26462;47.384;19.218;2024-03-02T14:43:31;9.80;99.90
40758;DHT22;26462;47.384;19.218;2024-03-02T14:46:00;9.80;99.90
40758;DHT22;26462;47.384;19.218;2024-03-02T14:48:28;9.80;99.90
40758;DHT22;26462;47.384;19.218;2024-03-02T14:50:57;9.70;99.90
40758;DHT22;26462;47.384;19.218;2024-03-02T14:53:26;9.80;99.90
40758;DHT22;26462;47.384;19.218;2024-03-02T14:55:54;9.80;99.90
40758;DHT22;26462;47.384;19.218;2024-03-02T14:58:22;9.80;99.90
40758;DHT22;26462;47.384;19.218;2024-03-02T15:00:52;9.80;99.90
40758;DHT22;26462;47.384;19.218;2024-03-02T15:03:21;9.80;99.90
40758;DHT22;26462;47.384;19.218;2024-03-02T15:05:50;9.80;99.90
40758;DHT22;26462;47.384;19.218;2024-03-02T15:08:19;9.80;99.90
40758;DHT22;26462;47.384;19.218;2024-03-02T15:10:48;9.80;99.90
40758;DHT22;26462;47.384;19.218;2024-03-02T15:13:16;9.80;99.90
40758;DHT22;26462;47.384;19.218;2024-03-02T15:15:45;9.70;99.90
40758;DHT22;26462;47.384;19.218;2024-03-02T15:18:15;9.70;99.90
40758;DHT22;26462;47.384;19.218;2024-03-02T15:20:43;9.70;99.90
40758;DHT22;26462;47.384;19.218;2024-03-02T15:23:12;9.80;99.90
40758;DHT22;26462;47.384;19.218;2024-03-02T15:25:41;9.80;99.90
40758;DHT22;26462;47.384;19.218;2024-03-02T15:28:11;9.70;99.90
40758;DHT22;26462;47.384;19.218;2024-03-02T15:30:39;9.70;99.90
40758;DHT22;26462;47.384;19.218;2024-03-02T15:33:08;9.70;99.90
40758;DHT22;26462;47.384;19.218;2024-03-02T15:35:38;9.70;99.90
40758;DHT22;26462;47.384;19.218;2024-03-02T15:38:07;9.70;99.90
40758;DHT22;26462;47.384;19.218;2024-03-02T15:40:54;9.70;99.90
40758;DHT22;26462;47.384;19.218;2024-03-02T15:43:23;9.70;99.90
40758;DHT22;26462;47.384;19.218;2024-03-02T15:45:52;9.70;99.90